sensor_id;sensor_type;location;lat;lon;timestamp;P1;durP1;ratioP1;P2;durP2;ratioP2
24030;SDS011;12240;51.142;22.486;2023-04-03T00:01:28;10.20;;;4.25;;
24030;SDS011;12240;51.142;22.486;2023-04-03T00:03:56;14.75;;;4.55;;
24030;SDS011;12240;51.142;22.486;2023-04-03T00:06:25;166.10;;;69.57;;
24030;SDS011;12240;51.142;22.486;2023-04-03T00:08:54;15.63;;;5.47;;
24030;SDS011;12240;51.142;22.486;2023-04-03T00:11:22;193.73;;;75.40;;
24030;SDS011;12240;51.142;22.486;2023-04-03T00:13:50;109.55;;;33.65;;
24030;SDS011;12240;51.142;22.486;2023-04-03T00:16:18;156.98;;;57.30;;
24030;SDS011;12240;51.142;22.486;2023-04-03T00:18:46;260.67;;;91.45;;
24030;SDS011;12240;51.142;22.486;2023-04-03T00:21:14;72.35;;;20.55;;
24030;SDS011;12240;51.142;22.486;2023-04-03T00:23:43;187.90;;;65.88;;
24030;SDS011;12240;51.142;22.486;2023-04-03T00:26:11;192.43;;;68.53;;
24030;SDS011;12240;51.142;22.486;2023-04-03T00:28:40;170.05;;;65.25;;
24030;SDS011;12240;51.142;22.486;2023-04-03T00:31:08;213.20;;;79.72;;
24030;SDS011;12240;51.142;22.486;2023-04-03T00:33:36;219.10;;;86.28;;
24030;SDS011;12240;51.142;22.486;2023-04-03T00:36:05;141.63;;;61.03;;
24030;SDS011;12240;51.142;22.486;2023-04-03T00:41:05;248.55;;;93.70;;
24030;SDS011;12240;51.142;22.486;2023-04-03T00:43:33;254.98;;;94.82;;
24030;SDS011;12240;51.142;22.486;2023-04-03T00:46:01;148.68;;;68.32;;
24030;SDS011;12240;51.142;22.486;2023-04-03T00:51:09;13.85;;;4.70;;
24030;SDS011;12240;51.142;22.486;2023-04-03T00:53:57;14.52;;;5.40;;
24030;SDS011;12240;51.142;22.486;2023-04-03T00:56:27;11.90;;;4.15;;
24030;SDS011;12240;51.142;22.486;2023-04-03T00:59:02;11.85;;;4.20;;
24030;SDS011;12240;51.142;22.486;2023-04-03T01:01:42;8.85;;;4.28;;
24030;SDS011;12240;51.142;22.486;2023-04-03T01:07:08;8.43;;;3.88;;
24030;SDS011;12240;51.142;22.486;2023-04-03T01:09:44;8.23;;;4.28;;
24030;SDS011;12240;51.142;22.486;2023-04-03T01:12:21;8.07;;;3.33;;
24030;SDS011;12240;51.142;22.486;2023-04-03T01:14:56;7.20;;;4.35;;
24030;SDS011;12240;51.142;22.486;2023-04-03T01:17:32;5.65;;;3.30;;
24030;SDS011;12240;51.142;22.486;2023-04-03T01:20:43;5.55;;;3.17;;
24030;SDS011;12240;51.142;22.486;2023-04-03T01:26:28;8.13;;;3.15;;
24030;SDS011;12240;51.142;22.486;2023-04-03T01:28:58;7.32;;;3.72;;
24030;SDS011;12240;51.142;22.486;2023-04-03T01:34:26;9.43;;;3.90;;
24030;SDS011;12240;51.142;22.486;2023-04-03T01:36:55;14.95;;;5.68;;
24030;SDS011;12240;51.142;22.486;2023-04-03T01:39:23;14.48;;;4.38;;
24030;SDS011;12240;51.142;22.486;2023-04-03T01:41:52;14.18;;;4.88;;
24030;SDS011;12240;51.142;22.486;2023-04-03T01:44:26;10.10;;;4.43;;
24030;SDS011;12240;51.142;22.486;2023-04-03T01:46:54;11.98;;;5.05;;
24030;SDS011;12240;51.142;22.486;2023-04-03T01:49:24;10.35;;;4.55;;
24030;SDS011;12240;51.142;22.486;2023-04-03T01:51:52;11.68;;;4.78;;
24030;SDS011;12240;51.142;22.486;2023-04-03T01:54:20;7.72;;;3.38;;
24030;SDS011;12240;51.142;22.486;2023-04-03T01:56:48;12.18;;;5.15;;
24030;SDS011;12240;51.142;22.486;2023-04-03T01:59:17;11.45;;;4.25;;
24030;SDS011;12240;51.142;22.486;2023-04-03T02:01:46;15.23;;;6.15;;
24030;SDS011;12240;51.142;22.486;2023-04-03T02:04:14;9.35;;;4.28;;
24030;SDS011;12240;51.142;22.486;2023-04-03T02:06:42;10.05;;;4.20;;
24030;SDS011;12240;51.142;22.486;2023-04-03T02:09:10;8.73;;;3.58;;
24030;SDS011;12240;51.142;22.486;2023-04-03T02:11:38;10.90;;;4.07;;
24030;SDS011;12240;51.142;22.486;2023-04-03T02:14:06;10.48;;;4.50;;
24030;SDS011;12240;51.142;22.486;2023-04-03T02:16:36;9.70;;;4.28;;
24030;SDS011;12240;51.142;22.486;2023-04-03T02:19:05;10.15;;;4.03;;
24030;SDS011;12240;51.142;22.486;2023-04-03T02:21:33;9.45;;;4.10;;
24030;SDS011;12240;51.142;22.486;2023-04-03T02:24:01;7.40;;;3.35;;
24030;SDS011;12240;51.142;22.486;2023-04-03T02:26:29;10.73;;;4.53;;
24030;SDS011;12240;51.142;22.486;2023-04-03T02:28:56;9.02;;;4.38;;
24030;SDS011;12240;51.142;22.486;2023-04-03T02:31:25;7.03;;;3.40;;
24030;SDS011;12240;51.142;22.486;2023-04-03T02:33:53;11.95;;;4.47;;
24030;SDS011;12240;51.142;22.486;2023-04-03T02:36:22;8.10;;;3.25;;
24030;SDS011;12240;51.142;22.486;2023-04-03T02:38:54;10.70;;;4.85;;
24030;SDS011;12240;51.142;22.486;2023-04-03T02:41:22;6.65;;;3.28;;
24030;SDS011;12240;51.142;22.486;2023-04-03T02:43:53;9.82;;;4.78;;
24030;SDS011;12240;51.142;22.486;2023-04-03T02:46:21;7.18;;;3.95;;
24030;SDS011;12240;51.142;22.486;2023-04-03T02:48:50;9.77;;;5.07;;
24030;SDS011;12240;51.142;22.486;2023-04-03T02:51:19;7.50;;;3.58;;
24030;SDS011;12240;51.142;22.486;2023-04-03T02:53:47;7.95;;;4.28;;
24030;SDS011;12240;51.142;22.486;2023-04-03T02:56:20;8.70;;;4.13;;
24030;SDS011;12240;51.142;22.486;2023-04-03T02:58:48;7.75;;;4.25;;
24030;SDS011;12240;51.142;22.486;2023-04-03T03:01:19;9.65;;;3.92;;
24030;SDS011;12240;51.142;22.486;2023-04-03T03:03:47;7.50;;;4.70;;
24030;SDS011;12240;51.142;22.486;2023-04-03T03:06:16;6.88;;;3.80;;
24030;SDS011;12240;51.142;22.486;2023-04-03T03:08:44;7.55;;;4.45;;
24030;SDS011;12240;51.142;22.486;2023-04-03T03:11:12;6.05;;;3.13;;
24030;SDS011;12240;51.142;22.486;2023-04-03T03:13:41;5.95;;;3.55;;
24030;SDS011;12240;51.142;22.486;2023-04-03T03:16:09;5.57;;;3.63;;
24030;SDS011;12240;51.142;22.486;2023-04-03T03:18:37;5.93;;;3.28;;
24030;SDS011;12240;51.142;22.486;2023-04-03T03:21:05;7.10;;;3.55;;
24030;SDS011;12240;51.142;22.486;2023-04-03T03:23:35;8.43;;;3.58;;
24030;SDS011;12240;51.142;22.486;2023-04-03T03:26:07;6.88;;;3.08;;
24030;SDS011;12240;51.142;22.486;2023-04-03T03:28:38;8.05;;;3.47;;
24030;SDS011;12240;51.142;22.486;2023-04-03T03:31:08;6.15;;;2.95;;
24030;SDS011;12240;51.142;22.486;2023-04-03T03:33:38;7.60;;;3.42;;
24030;SDS011;12240;51.142;22.486;2023-04-03T03:36:07;7.38;;;3.88;;
24030;SDS011;12240;51.142;22.486;2023-04-03T03:38:36;8.32;;;2.97;;
24030;SDS011;12240;51.142;22.486;2023-04-03T03:41:05;10.07;;;4.07;;
24030;SDS011;12240;51.142;22.486;2023-04-03T03:43:34;8.57;;;4.38;;
24030;SDS011;12240;51.142;22.486;2023-04-03T03:46:05;6.10;;;3.15;;
24030;SDS011;12240;51.142;22.486;2023-04-03T03:48:33;8.43;;;4.13;;
24030;SDS011;12240;51.142;22.486;2023-04-03T03:51:01;6.70;;;2.80;;
24030;SDS011;12240;51.142;22.486;2023-04-03T03:53:34;22.02;;;7.68;;
24030;SDS011;12240;51.142;22.486;2023-04-03T03:56:07;28.10;;;7.80;;
24030;SDS011;12240;51.142;22.486;2023-04-03T03:58:37;23.58;;;6.55;;
24030;SDS011;12240;51.142;22.486;2023-04-03T04:01:06;26.70;;;6.93;;
24030;SDS011;12240;51.142;22.486;2023-04-03T04:03:40;26.10;;;7.13;;
24030;SDS011;12240;51.142;22.486;2023-04-03T04:08:40;37.35;;;7.72;;
24030;SDS011;12240;51.142;22.486;2023-04-03T04:11:11;27.08;;;6.30;;
24030;SDS011;12240;51.142;22.486;2023-04-03T04:13:41;57.53;;;10.15;;
24030;SDS011;12240;51.142;22.486;2023-04-03T04:16:11;37.22;;;6.88;;
24030;SDS011;12240;51.142;22.486;2023-04-03T04:18:40;33.20;;;7.15;;
24030;SDS011;12240;51.142;22.486;2023-04-03T04:21:08;32.22;;;7.53;;
24030;SDS011;12240;51.142;22.486;2023-04-03T04:23:38;84.75;;;14.23;;
24030;SDS011;12240;51.142;22.486;2023-04-03T04:26:06;34.15;;;8.57;;
24030;SDS011;12240;51.142;22.486;2023-04-03T04:28:37;39.33;;;6.60;;
24030;SDS011;12240;51.142;22.486;2023-04-03T04:31:06;23.98;;;5.45;;
24030;SDS011;12240;51.142;22.486;2023-04-03T04:33:35;38.55;;;7.43;;
24030;SDS011;12240;51.142;22.486;2023-04-03T04:36:07;23.48;;;5.13;;
24030;SDS011;12240;51.142;22.486;2023-04-03T04:38:35;24.00;;;4.97;;
24030;SDS011;12240;51.142;22.486;2023-04-03T04:41:07;15.45;;;4.65;;
24030;SDS011;12240;51.142;22.486;2023-04-03T04:43:36;27.80;;;6.15;;
24030;SDS011;12240;51.142;22.486;2023-04-03T04:46:09;21.55;;;5.95;;
24030;SDS011;12240;51.142;22.486;2023-04-03T04:48:45;25.17;;;5.60;;
24030;SDS011;12240;51.142;22.486;2023-04-03T04:51:18;15.45;;;4.05;;
24030;SDS011;12240;51.142;22.486;2023-04-03T04:53:47;15.52;;;4.75;;
24030;SDS011;12240;51.142;22.486;2023-04-03T04:56:17;20.52;;;5.13;;
24030;SDS011;12240;51.142;22.486;2023-04-03T04:58:46;17.42;;;5.25;;
24030;SDS011;12240;51.142;22.486;2023-04-03T05:01:16;14.45;;;4.47;;
24030;SDS011;12240;51.142;22.486;2023-04-03T05:06:38;11.68;;;4.38;;
24030;SDS011;12240;51.142;22.486;2023-04-03T05:09:11;10.68;;;3.97;;
24030;SDS011;12240;51.142;22.486;2023-04-03T05:11:41;11.60;;;4.20;;
24030;SDS011;12240;51.142;22.486;2023-04-03T05:14:12;12.90;;;4.17;;
24030;SDS011;12240;51.142;22.486;2023-04-03T05:16:41;9.73;;;3.80;;
24030;SDS011;12240;51.142;22.486;2023-04-03T05:19:09;10.98;;;4.53;;
24030;SDS011;12240;51.142;22.486;2023-04-03T05:21:38;9.98;;;4.00;;
24030;SDS011;12240;51.142;22.486;2023-04-03T05:24:11;8.27;;;3.85;;
24030;SDS011;12240;51.142;22.486;2023-04-03T05:26:42;14.70;;;4.72;;
24030;SDS011;12240;51.142;22.486;2023-04-03T05:29:12;9.95;;;3.63;;
24030;SDS011;12240;51.142;22.486;2023-04-03T05:31:41;9.75;;;3.75;;
24030;SDS011;12240;51.142;22.486;2023-04-03T05:34:11;8.95;;;3.67;;
24030;SDS011;12240;51.142;22.486;2023-04-03T05:36:40;8.10;;;3.63;;
24030;SDS011;12240;51.142;22.486;2023-04-03T05:39:09;7.60;;;3.60;;
24030;SDS011;12240;51.142;22.486;2023-04-03T05:41:41;12.65;;;7.38;;
24030;SDS011;12240;51.142;22.486;2023-04-03T05:44:09;8.20;;;3.15;;
24030;SDS011;12240;51.142;22.486;2023-04-03T05:46:38;9.18;;;3.55;;
24030;SDS011;12240;51.142;22.486;2023-04-03T05:49:08;7.25;;;3.33;;
24030;SDS011;12240;51.142;22.486;2023-04-03T05:51:38;9.10;;;3.10;;
24030;SDS011;12240;51.142;22.486;2023-04-03T05:56:56;6.45;;;3.03;;
24030;SDS011;12240;51.142;22.486;2023-04-03T05:59:25;7.03;;;2.80;;
24030;SDS011;12240;51.142;22.486;2023-04-03T06:01:56;6.18;;;2.65;;
24030;SDS011;12240;51.142;22.486;2023-04-03T06:04:24;5.40;;;2.75;;
24030;SDS011;12240;51.142;22.486;2023-04-03T06:06:54;7.80;;;3.72;;
24030;SDS011;12240;51.142;22.486;2023-04-03T06:09:26;5.88;;;2.70;;
24030;SDS011;12240;51.142;22.486;2023-04-03T06:11:56;5.15;;;2.83;;
24030;SDS011;12240;51.142;22.486;2023-04-03T06:14:29;4.47;;;2.30;;
24030;SDS011;12240;51.142;22.486;2023-04-03T06:16:57;6.22;;;2.67;;
24030;SDS011;12240;51.142;22.486;2023-04-03T06:19:26;7.47;;;3.03;;
24030;SDS011;12240;51.142;22.486;2023-04-03T06:21:57;10.88;;;3.30;;
24030;SDS011;12240;51.142;22.486;2023-04-03T06:24:25;9.77;;;2.90;;
24030;SDS011;12240;51.142;22.486;2023-04-03T06:26:53;8.32;;;4.07;;
24030;SDS011;12240;51.142;22.486;2023-04-03T06:29:22;5.85;;;2.63;;
24030;SDS011;12240;51.142;22.486;2023-04-03T06:31:51;6.75;;;4.03;;
24030;SDS011;12240;51.142;22.486;2023-04-03T06:34:19;7.40;;;3.25;;
24030;SDS011;12240;51.142;22.486;2023-04-03T06:36:47;7.65;;;3.55;;
24030;SDS011;12240;51.142;22.486;2023-04-03T06:39:18;5.10;;;2.92;;
24030;SDS011;12240;51.142;22.486;2023-04-03T06:41:49;9.68;;;3.78;;
24030;SDS011;12240;51.142;22.486;2023-04-03T06:44:27;8.43;;;2.80;;
24030;SDS011;12240;51.142;22.486;2023-04-03T06:46:55;7.22;;;3.63;;
24030;SDS011;12240;51.142;22.486;2023-04-03T06:49:23;5.25;;;2.85;;
24030;SDS011;12240;51.142;22.486;2023-04-03T06:51:52;5.95;;;3.35;;
24030;SDS011;12240;51.142;22.486;2023-04-03T06:54:20;7.03;;;2.63;;
24030;SDS011;12240;51.142;22.486;2023-04-03T06:56:50;7.20;;;3.63;;
24030;SDS011;12240;51.142;22.486;2023-04-03T06:59:18;5.78;;;3.33;;
24030;SDS011;12240;51.142;22.486;2023-04-03T07:01:47;6.75;;;3.45;;
24030;SDS011;12240;51.142;22.486;2023-04-03T07:04:16;4.90;;;2.38;;
24030;SDS011;12240;51.142;22.486;2023-04-03T07:06:45;5.22;;;3.30;;
24030;SDS011;12240;51.142;22.486;2023-04-03T07:09:14;9.88;;;3.05;;
24030;SDS011;12240;51.142;22.486;2023-04-03T07:11:43;8.45;;;3.35;;
24030;SDS011;12240;51.142;22.486;2023-04-03T07:14:11;7.75;;;3.40;;
24030;SDS011;12240;51.142;22.486;2023-04-03T07:16:40;10.52;;;3.30;;
24030;SDS011;12240;51.142;22.486;2023-04-03T07:19:09;6.03;;;2.67;;
24030;SDS011;12240;51.142;22.486;2023-04-03T07:21:37;5.70;;;2.65;;
24030;SDS011;12240;51.142;22.486;2023-04-03T07:24:05;9.77;;;3.53;;
24030;SDS011;12240;51.142;22.486;2023-04-03T07:26:38;14.15;;;4.55;;
24030;SDS011;12240;51.142;22.486;2023-04-03T07:29:06;14.50;;;4.53;;
24030;SDS011;12240;51.142;22.486;2023-04-03T07:31:34;7.32;;;3.10;;
24030;SDS011;12240;51.142;22.486;2023-04-03T07:34:03;7.63;;;3.15;;
24030;SDS011;12240;51.142;22.486;2023-04-03T07:36:31;6.45;;;3.08;;
24030;SDS011;12240;51.142;22.486;2023-04-03T07:39:00;10.45;;;3.55;;
24030;SDS011;12240;51.142;22.486;2023-04-03T07:41:28;5.35;;;3.05;;
24030;SDS011;12240;51.142;22.486;2023-04-03T07:43:57;6.65;;;3.17;;
24030;SDS011;12240;51.142;22.486;2023-04-03T07:46:25;8.13;;;2.97;;
24030;SDS011;12240;51.142;22.486;2023-04-03T07:48:54;6.68;;;3.40;;
24030;SDS011;12240;51.142;22.486;2023-04-03T07:51:24;5.50;;;2.72;;
24030;SDS011;12240;51.142;22.486;2023-04-03T07:53:53;8.82;;;3.80;;
24030;SDS011;12240;51.142;22.486;2023-04-03T07:56:22;5.63;;;3.05;;
24030;SDS011;12240;51.142;22.486;2023-04-03T07:58:50;8.10;;;3.55;;
24030;SDS011;12240;51.142;22.486;2023-04-03T08:01:18;7.20;;;2.95;;
24030;SDS011;12240;51.142;22.486;2023-04-03T08:03:46;8.13;;;4.25;;
24030;SDS011;12240;51.142;22.486;2023-04-03T08:06:14;4.60;;;2.58;;
24030;SDS011;12240;51.142;22.486;2023-04-03T08:08:49;5.70;;;3.33;;
24030;SDS011;12240;51.142;22.486;2023-04-03T08:11:19;5.32;;;2.60;;
24030;SDS011;12240;51.142;22.486;2023-04-03T08:13:47;7.45;;;3.55;;
24030;SDS011;12240;51.142;22.486;2023-04-03T08:16:18;4.82;;;2.97;;
24030;SDS011;12240;51.142;22.486;2023-04-03T08:18:51;9.30;;;3.90;;
24030;SDS011;12240;51.142;22.486;2023-04-03T08:23:56;15.30;;;3.58;;
24030;SDS011;12240;51.142;22.486;2023-04-03T08:26:25;15.10;;;4.07;;
24030;SDS011;12240;51.142;22.486;2023-04-03T08:28:53;12.52;;;3.90;;
24030;SDS011;12240;51.142;22.486;2023-04-03T08:31:22;12.40;;;4.00;;
24030;SDS011;12240;51.142;22.486;2023-04-03T08:33:50;10.90;;;3.92;;
24030;SDS011;12240;51.142;22.486;2023-04-03T08:36:26;18.92;;;5.90;;
24030;SDS011;12240;51.142;22.486;2023-04-03T08:38:57;20.75;;;4.28;;
24030;SDS011;12240;51.142;22.486;2023-04-03T08:47:13;7.38;;;3.22;;
24030;SDS011;12240;51.142;22.486;2023-04-03T08:50:17;5.55;;;3.00;;
24030;SDS011;12240;51.142;22.486;2023-04-03T08:52:54;9.10;;;3.25;;
24030;SDS011;12240;51.142;22.486;2023-04-03T08:55:33;7.30;;;2.90;;
24030;SDS011;12240;51.142;22.486;2023-04-03T08:58:12;5.55;;;2.72;;
24030;SDS011;12240;51.142;22.486;2023-04-03T09:00:52;5.22;;;3.17;;
24030;SDS011;12240;51.142;22.486;2023-04-03T09:03:33;4.13;;;2.20;;
24030;SDS011;12240;51.142;22.486;2023-04-03T09:12:03;7.28;;;2.58;;
24030;SDS011;12240;51.142;22.486;2023-04-03T09:26:26;3.58;;;1.48;;
24030;SDS011;12240;51.142;22.486;2023-04-03T09:28:59;2.22;;;1.13;;
24030;SDS011;12240;51.142;22.486;2023-04-03T09:31:37;3.28;;;1.10;;
24030;SDS011;12240;51.142;22.486;2023-04-03T09:37:08;4.35;;;1.42;;
24030;SDS011;12240;51.142;22.486;2023-04-03T09:39:49;3.92;;;1.25;;
24030;SDS011;12240;51.142;22.486;2023-04-03T09:42:24;2.40;;;1.20;;
24030;SDS011;12240;51.142;22.486;2023-04-03T09:44:55;2.72;;;1.30;;
24030;SDS011;12240;51.142;22.486;2023-04-03T09:47:33;3.35;;;1.17;;
24030;SDS011;12240;51.142;22.486;2023-04-03T09:52:42;3.47;;;0.98;;
24030;SDS011;12240;51.142;22.486;2023-04-03T09:55:19;5.60;;;1.38;;
24030;SDS011;12240;51.142;22.486;2023-04-03T09:57:58;2.88;;;1.00;;
24030;SDS011;12240;51.142;22.486;2023-04-03T10:00:35;2.88;;;1.20;;
24030;SDS011;12240;51.142;22.486;2023-04-03T10:03:24;2.58;;;1.20;;
24030;SDS011;12240;51.142;22.486;2023-04-03T10:06:01;3.88;;;1.30;;
24030;SDS011;12240;51.142;22.486;2023-04-03T10:08:31;2.78;;;1.20;;
24030;SDS011;12240;51.142;22.486;2023-04-03T10:13:53;4.00;;;1.60;;
24030;SDS011;12240;51.142;22.486;2023-04-03T10:16:25;3.17;;;1.20;;
24030;SDS011;12240;51.142;22.486;2023-04-03T10:19:11;6.35;;;2.50;;
24030;SDS011;12240;51.142;22.486;2023-04-03T10:28:26;3.03;;;1.33;;
24030;SDS011;12240;51.142;22.486;2023-04-03T10:31:21;190.73;;;81.28;;
24030;SDS011;12240;51.142;22.486;2023-04-03T10:42:34;4.03;;;2.20;;
24030;SDS011;12240;51.142;22.486;2023-04-03T10:51:22;2.88;;;1.00;;
24030;SDS011;12240;51.142;22.486;2023-04-03T10:56:55;2.75;;;1.20;;
24030;SDS011;12240;51.142;22.486;2023-04-03T10:59:56;3.70;;;1.40;;
24030;SDS011;12240;51.142;22.486;2023-04-03T11:02:31;2.13;;;0.98;;
24030;SDS011;12240;51.142;22.486;2023-04-03T11:05:18;2.17;;;1.15;;
24030;SDS011;12240;51.142;22.486;2023-04-03T11:08:26;3.88;;;1.30;;
24030;SDS011;12240;51.142;22.486;2023-04-03T11:11:24;4.97;;;1.50;;
24030;SDS011;12240;51.142;22.486;2023-04-03T11:17:01;3.53;;;1.20;;
24030;SDS011;12240;51.142;22.486;2023-04-03T11:23:01;3.47;;;1.30;;
24030;SDS011;12240;51.142;22.486;2023-04-03T11:26:17;3.85;;;1.30;;
24030;SDS011;12240;51.142;22.486;2023-04-03T11:28:53;3.30;;;1.08;;
24030;SDS011;12240;51.142;22.486;2023-04-03T11:35:04;3.55;;;1.05;;
24030;SDS011;12240;51.142;22.486;2023-04-03T11:37:35;2.58;;;1.02;;
24030;SDS011;12240;51.142;22.486;2023-04-03T11:43:05;3.55;;;1.13;;
24030;SDS011;12240;51.142;22.486;2023-04-03T11:50:59;3.25;;;1.20;;
24030;SDS011;12240;51.142;22.486;2023-04-03T11:56:04;4.47;;;1.27;;
24030;SDS011;12240;51.142;22.486;2023-04-03T12:04:16;2.58;;;1.10;;
24030;SDS011;12240;51.142;22.486;2023-04-03T12:09:27;4.22;;;1.20;;
24030;SDS011;12240;51.142;22.486;2023-04-03T12:12:21;1.73;;;0.90;;
24030;SDS011;12240;51.142;22.486;2023-04-03T12:15:22;4.13;;;1.02;;
24030;SDS011;12240;51.142;22.486;2023-04-03T12:17:53;1.67;;;1.10;;
24030;SDS011;12240;51.142;22.486;2023-04-03T12:29:36;3.30;;;1.40;;
24030;SDS011;12240;51.142;22.486;2023-04-03T12:35:43;3.10;;;1.08;;
24030;SDS011;12240;51.142;22.486;2023-04-03T12:38:19;3.00;;;0.90;;
24030;SDS011;12240;51.142;22.486;2023-04-03T12:46:42;2.17;;;1.08;;
24030;SDS011;12240;51.142;22.486;2023-04-03T12:49:18;2.25;;;1.10;;
24030;SDS011;12240;51.142;22.486;2023-04-03T12:52:29;4.68;;;1.30;;
24030;SDS011;12240;51.142;22.486;2023-04-03T12:55:30;2.92;;;1.00;;
24030;SDS011;12240;51.142;22.486;2023-04-03T12:58:21;5.78;;;1.08;;
24030;SDS011;12240;51.142;22.486;2023-04-03T13:01:02;3.08;;;1.00;;
24030;SDS011;12240;51.142;22.486;2023-04-03T13:03:39;4.38;;;1.05;;
24030;SDS011;12240;51.142;22.486;2023-04-03T13:06:14;2.15;;;0.80;;
24030;SDS011;12240;51.142;22.486;2023-04-03T13:09:02;2.50;;;1.20;;
24030;SDS011;12240;51.142;22.486;2023-04-03T13:11:32;3.13;;;0.90;;
24030;SDS011;12240;51.142;22.486;2023-04-03T13:14:15;2.45;;;0.90;;
24030;SDS011;12240;51.142;22.486;2023-04-03T13:16:56;2.28;;;1.10;;
24030;SDS011;12240;51.142;22.486;2023-04-03T13:19:25;2.47;;;0.93;;
24030;SDS011;12240;51.142;22.486;2023-04-03T13:22:03;2.00;;;1.02;;
24030;SDS011;12240;51.142;22.486;2023-04-03T13:24:46;4.47;;;0.90;;
24030;SDS011;12240;51.142;22.486;2023-04-03T13:27:17;2.40;;;1.10;;
24030;SDS011;12240;51.142;22.486;2023-04-03T13:29:49;3.83;;;1.48;;
24030;SDS011;12240;51.142;22.486;2023-04-03T13:32:21;5.00;;;1.08;;
24030;SDS011;12240;51.142;22.486;2023-04-03T13:42:35;2.03;;;1.00;;
24030;SDS011;12240;51.142;22.486;2023-04-03T13:47:51;2.85;;;1.30;;
24030;SDS011;12240;51.142;22.486;2023-04-03T13:50:24;2.67;;;1.10;;
24030;SDS011;12240;51.142;22.486;2023-04-03T13:53:16;3.03;;;1.27;;
24030;SDS011;12240;51.142;22.486;2023-04-03T13:58:35;4.60;;;1.23;;
24030;SDS011;12240;51.142;22.486;2023-04-03T14:03:47;2.38;;;1.33;;
24030;SDS011;12240;51.142;22.486;2023-04-03T14:12:40;2.30;;;1.20;;
24030;SDS011;12240;51.142;22.486;2023-04-03T14:23:59;2.95;;;1.20;;
24030;SDS011;12240;51.142;22.486;2023-04-03T14:26:28;3.10;;;1.55;;
24030;SDS011;12240;51.142;22.486;2023-04-03T14:28:57;2.75;;;1.60;;
24030;SDS011;12240;51.142;22.486;2023-04-03T14:31:25;2.83;;;1.42;;
24030;SDS011;12240;51.142;22.486;2023-04-03T14:33:57;5.00;;;2.63;;
24030;SDS011;12240;51.142;22.486;2023-04-03T14:36:26;2.95;;;1.20;;
24030;SDS011;12240;51.142;22.486;2023-04-03T14:39:52;3.03;;;1.58;;
24030;SDS011;12240;51.142;22.486;2023-04-03T14:42:23;3.60;;;1.42;;
24030;SDS011;12240;51.142;22.486;2023-04-03T14:44:58;2.33;;;1.40;;
24030;SDS011;12240;51.142;22.486;2023-04-03T14:47:30;4.88;;;1.63;;
24030;SDS011;12240;51.142;22.486;2023-04-03T14:50:03;4.22;;;1.70;;
24030;SDS011;12240;51.142;22.486;2023-04-03T14:52:38;3.38;;;1.85;;
24030;SDS011;12240;51.142;22.486;2023-04-03T15:01:36;3.65;;;1.70;;
24030;SDS011;12240;51.142;22.486;2023-04-03T15:04:10;2.95;;;1.45;;
24030;SDS011;12240;51.142;22.486;2023-04-03T15:06:43;5.85;;;1.67;;
24030;SDS011;12240;51.142;22.486;2023-04-03T15:09:18;4.05;;;1.80;;
24030;SDS011;12240;51.142;22.486;2023-04-03T15:11:54;3.58;;;2.20;;
24030;SDS011;12240;51.142;22.486;2023-04-03T15:14:23;5.50;;;1.67;;
24030;SDS011;12240;51.142;22.486;2023-04-03T15:17:06;4.90;;;2.70;;
24030;SDS011;12240;51.142;22.486;2023-04-03T15:19:44;3.35;;;1.83;;
24030;SDS011;12240;51.142;22.486;2023-04-03T15:22:16;5.10;;;2.05;;
24030;SDS011;12240;51.142;22.486;2023-04-03T15:24:49;4.95;;;1.80;;
24030;SDS011;12240;51.142;22.486;2023-04-03T15:27:17;4.75;;;2.05;;
24030;SDS011;12240;51.142;22.486;2023-04-03T15:29:46;6.32;;;2.22;;
24030;SDS011;12240;51.142;22.486;2023-04-03T15:32:15;5.30;;;2.20;;
24030;SDS011;12240;51.142;22.486;2023-04-03T15:34:43;4.75;;;1.98;;
24030;SDS011;12240;51.142;22.486;2023-04-03T15:37:11;3.72;;;1.90;;
24030;SDS011;12240;51.142;22.486;2023-04-03T15:39:44;5.82;;;2.08;;
24030;SDS011;12240;51.142;22.486;2023-04-03T15:42:17;6.82;;;2.40;;
24030;SDS011;12240;51.142;22.486;2023-04-03T15:44:47;6.72;;;2.10;;
24030;SDS011;12240;51.142;22.486;2023-04-03T15:47:16;5.97;;;1.92;;
24030;SDS011;12240;51.142;22.486;2023-04-03T15:49:48;7.70;;;2.70;;
24030;SDS011;12240;51.142;22.486;2023-04-03T15:52:17;5.80;;;2.60;;
24030;SDS011;12240;51.142;22.486;2023-04-03T15:54:46;5.60;;;2.90;;
24030;SDS011;12240;51.142;22.486;2023-04-03T15:57:14;8.77;;;2.38;;
24030;SDS011;12240;51.142;22.486;2023-04-03T15:59:43;5.82;;;3.03;;
24030;SDS011;12240;51.142;22.486;2023-04-03T16:02:12;6.32;;;3.58;;
24030;SDS011;12240;51.142;22.486;2023-04-03T16:04:42;6.35;;;3.20;;
24030;SDS011;12240;51.142;22.486;2023-04-03T16:07:10;6.85;;;3.17;;
24030;SDS011;12240;51.142;22.486;2023-04-03T16:09:39;6.88;;;3.50;;
24030;SDS011;12240;51.142;22.486;2023-04-03T16:12:09;8.90;;;4.03;;
24030;SDS011;12240;51.142;22.486;2023-04-03T16:14:38;6.38;;;2.97;;
24030;SDS011;12240;51.142;22.486;2023-04-03T16:17:09;6.03;;;3.30;;
24030;SDS011;12240;51.142;22.486;2023-04-03T16:19:39;8.15;;;3.55;;
24030;SDS011;12240;51.142;22.486;2023-04-03T16:22:07;6.40;;;3.10;;
24030;SDS011;12240;51.142;22.486;2023-04-03T16:24:37;6.60;;;3.38;;
24030;SDS011;12240;51.142;22.486;2023-04-03T16:27:05;8.07;;;3.35;;
24030;SDS011;12240;51.142;22.486;2023-04-03T16:29:34;6.22;;;3.20;;
24030;SDS011;12240;51.142;22.486;2023-04-03T16:32:02;7.78;;;3.63;;
24030;SDS011;12240;51.142;22.486;2023-04-03T16:34:31;10.93;;;6.63;;
24030;SDS011;12240;51.142;22.486;2023-04-03T16:37:00;8.93;;;4.03;;
24030;SDS011;12240;51.142;22.486;2023-04-03T16:39:28;4.53;;;2.83;;
24030;SDS011;12240;51.142;22.486;2023-04-03T16:41:56;8.43;;;4.00;;
24030;SDS011;12240;51.142;22.486;2023-04-03T16:44:25;9.88;;;4.05;;
24030;SDS011;12240;51.142;22.486;2023-04-03T16:46:53;13.45;;;5.15;;
24030;SDS011;12240;51.142;22.486;2023-04-03T16:49:21;11.68;;;4.45;;
24030;SDS011;12240;51.142;22.486;2023-04-03T16:51:49;12.40;;;5.95;;
24030;SDS011;12240;51.142;22.486;2023-04-03T16:54:18;17.55;;;6.60;;
24030;SDS011;12240;51.142;22.486;2023-04-03T16:56:46;13.40;;;4.85;;
24030;SDS011;12240;51.142;22.486;2023-04-03T16:59:14;14.05;;;6.10;;
24030;SDS011;12240;51.142;22.486;2023-04-03T17:01:43;14.07;;;6.63;;
24030;SDS011;12240;51.142;22.486;2023-04-03T17:04:12;13.82;;;5.60;;
24030;SDS011;12240;51.142;22.486;2023-04-03T17:06:41;15.02;;;6.05;;
24030;SDS011;12240;51.142;22.486;2023-04-03T17:09:09;15.32;;;5.40;;
24030;SDS011;12240;51.142;22.486;2023-04-03T17:11:38;30.83;;;10.02;;
24030;SDS011;12240;51.142;22.486;2023-04-03T17:14:08;13.85;;;5.47;;
24030;SDS011;12240;51.142;22.486;2023-04-03T17:16:37;19.33;;;6.97;;
24030;SDS011;12240;51.142;22.486;2023-04-03T17:19:06;12.68;;;5.20;;
24030;SDS011;12240;51.142;22.486;2023-04-03T17:21:35;11.63;;;4.72;;
24030;SDS011;12240;51.142;22.486;2023-04-03T17:24:05;12.13;;;5.50;;
24030;SDS011;12240;51.142;22.486;2023-04-03T17:26:40;18.65;;;6.63;;
24030;SDS011;12240;51.142;22.486;2023-04-03T17:29:09;17.70;;;5.90;;
24030;SDS011;12240;51.142;22.486;2023-04-03T17:31:38;11.05;;;5.18;;
24030;SDS011;12240;51.142;22.486;2023-04-03T17:34:06;11.73;;;4.47;;
24030;SDS011;12240;51.142;22.486;2023-04-03T17:36:38;14.73;;;4.32;;
24030;SDS011;12240;51.142;22.486;2023-04-03T17:39:07;14.82;;;4.65;;
24030;SDS011;12240;51.142;22.486;2023-04-03T17:41:36;9.25;;;4.25;;
24030;SDS011;12240;51.142;22.486;2023-04-03T17:44:05;15.85;;;5.63;;